Time;durP1;ratioP1;P1;durP2;ratioP2;P2;SDS_P1;SDS_P2;PMS_P1;PMS_P2;Temp;Humidity;BMP_temperature;BMP_pressure;BME280_temperature;BME280_humidity;BME280_pressure;Samples;Min_cycle;Max_cycle;Signal;HPM_P1;HPM_P2
2024/01/19 00:00:39;;;;;;;94.70;45.12;;;;;;;-1.72;94.67;99071.62;1713548;83;25552;-49
2024/01/19 00:03:09;;;;;;;91.53;43.02;;;;;;;-1.76;94.51;99082.48;1713552;83;26008;-50
2024/01/19 00:05:35;;;;;;;90.30;43.10;;;;;;;-1.79;94.52;99100.22;1713508;83;26003;-50
2024/01/19 00:08:02;;;;;;;88.22;45.40;;;;;;;-1.84;94.56;99098.33;1713508;83;25646;-51
2024/01/19 00:10:30;;;;;;;85.87;41.95;;;;;;;-1.87;94.41;99102.84;1713389;83;26397;-51
2024/01/19 00:12:58;;;;;;;91.85;43.15;;;;;;;-1.92;94.40;99100.95;1713063;82;25578;-49
2024/01/19 00:15:24;;;;;;;84.83;43.52;;;;;;;-1.96;94.50;99111.80;1713447;83;27391;-49
2024/01/19 00:17:52;;;;;;;86.92;42.00;;;;;;;-1.98;94.38;99121.04;1713405;83;25631;-51
2024/01/19 00:20:21;;;;;;;81.70;40.67;;;;;;;-2.02;94.30;99127.38;1713476;83;25389;-49
2024/01/19 00:22:47;;;;;;;85.92;42.60;;;;;;;-2.05;94.28;99125.77;1713536;83;25616;-49
2024/01/19 00:25:13;;;;;;;80.10;40.15;;;;;;;-2.08;94.29;99133.18;1713472;83;25461;-52
2024/01/19 00:27:39;;;;;;;92.95;42.33;;;;;;;-2.12;94.22;99129.95;1713485;83;27342;-50
2024/01/19 00:30:10;;;;;;;85.42;41.50;;;;;;;-2.16;94.28;99138.13;1713393;83;25547;-51
2024/01/19 00:32:36;;;;;;;85.35;41.10;;;;;;;-2.19;94.07;99138.66;1713527;83;25459;-53
2024/01/19 00:35:07;;;;;;;92.70;40.83;;;;;;;-2.23;94.10;99149.46;1713445;83;25685;-51
2024/01/19 00:37:33;;;;;;;81.20;40.15;;;;;;;-2.28;93.98;99153.67;1713550;83;25592;-51
2024/01/19 00:39:59;;;;;;;87.70;41.25;;;;;;;-2.31;94.13;99160.01;1713460;83;27307;-52
2024/01/19 00:42:25;;;;;;;91.57;42.65;;;;;;;-2.34;94.20;99161.83;1713367;83;25532;-50
2024/01/19 00:44:51;;;;;;;88.42;42.25;;;;;;;-2.37;94.10;99155.70;1713432;83;25592;-51
2024/01/19 00:47:18;;;;;;;86.05;41.90;;;;;;;-2.41;94.00;99158.06;1713431;83;25625;-49
2024/01/19 00:49:44;;;;;;;83.78;39.70;;;;;;;-2.47;93.79;99168.32;1713566;83;25563;-49
2024/01/19 00:52:12;;;;;;;84.85;38.15;;;;;;;-2.52;93.74;99171.73;1713488;83;27203;-50
2024/01/19 00:54:38;;;;;;;80.67;39.75;;;;;;;-2.56;93.82;99182.53;1713380;83;25562;-49
2024/01/19 00:57:06;;;;;;;77.25;37.33;;;;;;;-2.60;94.00;99180.66;1713494;83;25402;-48
2024/01/19 00:59:33;;;;;;;75.95;37.35;;;;;;;-2.64;94.20;99187.77;1713394;83;27848;-50
2024/01/19 01:02:02;;;;;;;73.47;36.75;;;;;;;-2.66;94.60;99195.67;1713476;83;25719;-49
2024/01/19 01:04:29;;;;;;;79.17;35.83;;;;;;;-2.66;94.97;99202.28;1713653;83;28155;-51
2024/01/19 01:06:55;;;;;;;73.60;34.95;;;;;;;-2.67;95.26;99208.65;1713403;83;25410;-48
2024/01/19 01:09:21;;;;;;;81.53;38.30;;;;;;;-2.66;95.53;99214.20;1713461;83;25647;-51
2024/01/19 01:11:47;;;;;;;74.77;37.05;;;;;;;-2.67;95.70;99216.59;1713598;82;25547;-48
2024/01/19 01:14:15;;;;;;;75.95;35.28;;;;;;;-2.67;95.90;99221.35;1739676;81;25389;-48
2024/01/19 01:16:44;;;;;;;74.53;36.17;;;;;;;-2.67;95.94;99221.88;1739740;82;27321;-49
2024/01/19 01:19:10;;;;;;;78.92;37.80;;;;;;;-2.66;95.95;99228.77;1739830;82;25355;-49
2024/01/19 01:21:38;;;;;;;74.95;37.65;;;;;;;-2.67;95.97;99236.45;1739831;82;25551;-49
2024/01/19 01:24:08;;;;;;;78.22;36.28;;;;;;;-2.68;95.92;99238.80;1739806;81;25719;-49
2024/01/19 01:26:34;;;;;;;82.75;37.98;;;;;;;-2.70;95.89;99248.31;1739896;82;25450;-50
2024/01/19 01:29:03;;;;;;;76.47;35.90;;;;;;;-2.71;95.91;99245.91;1739826;82;27316;-49
2024/01/19 01:31:30;;;;;;;72.03;33.78;;;;;;;-2.77;95.43;99256.97;1739799;82;25456;-50
2024/01/19 01:33:59;;;;;;;68.90;34.25;;;;;;;-2.82;95.32;99252.41;1739811;81;25628;-48
2024/01/19 01:36:25;;;;;;;69.45;32.03;;;;;;;-2.87;95.18;99258.17;1739936;82;26020;-49
2024/01/19 01:38:51;;;;;;;80.20;33.10;;;;;;;-2.91;95.34;99255.22;1739879;82;25546;-50
2024/01/19 01:41:18;;;;;;;77.03;34.90;;;;;;;-2.91;95.40;99275.06;1739785;82;27341;-50
2024/01/19 01:43:44;;;;;;;70.50;33.50;;;;;;;-2.92;95.43;99273.45;1739837;81;25408;-48
2024/01/19 01:46:12;;;;;;;71.72;33.48;;;;;;;-2.94;95.59;99276.87;1739812;82;25458;-48
2024/01/19 01:48:42;;;;;;;66.92;32.45;;;;;;;-2.92;95.68;99283.24;1739878;81;25738;-48
2024/01/19 01:51:12;;;;;;;73.95;33.23;;;;;;;-2.92;95.77;99285.36;1740032;81;25571;-50
2024/01/19 01:53:40;;;;;;;69.85;31.62;;;;;;;-2.92;95.79;99285.89;1739817;82;29559;-47
2024/01/19 01:56:06;;;;;;;63.08;29.20;;;;;;;-2.92;95.84;99288.53;1739724;82;25532;-49
2024/01/19 01:58:33;;;;;;;67.85;30.43;;;;;;;-2.92;95.70;99285.89;1739836;81;25422;-51
2024/01/19 02:01:01;;;;;;;68.87;29.98;;;;;;;-2.92;95.74;99293.83;1739829;81;25797;-51
2024/01/19 02:03:28;;;;;;;71.15;30.23;;;;;;;-2.93;95.71;99302.27;1740056;81;25515;-50
2024/01/19 02:05:56;;;;;;;68.95;31.10;;;;;;;-2.93;95.86;99310.20;1739867;82;28228;-49
2024/01/19 02:08:22;;;;;;;66.87;30.05;;;;;;;-2.89;95.90;99313.20;1739864;82;25764;-48
2024/01/19 02:10:49;;;;;;;63.25;29.55;;;;;;;-2.90;95.91;99322.95;1739805;81;25457;-47
2024/01/19 02:13:17;;;;;;;64.00;28.32;;;;;;;-2.88;95.95;99328.02;1739642;81;26334;-48
2024/01/19 02:15:43;;;;;;;65.87;29.60;;;;;;;-2.87;95.92;99330.95;1739886;82;25642;-48
2024/01/19 02:18:12;;;;;;;60.78;27.98;;;;;;;-2.86;95.91;99333.36;1739824;82;27308;-48
2024/01/19 02:20:45;;;;;;;60.10;28.15;;;;;;;-2.85;95.95;99342.09;1739756;82;25595;-48
2024/01/19 02:23:15;;;;;;;54.88;25.62;;;;;;;-2.82;95.99;99346.37;1721332;82;25477;-48
2024/01/19 02:25:43;;;;;;;59.55;27.10;;;;;;;-2.79;96.07;99345.59;1739755;81;25686;-48
2024/01/19 02:28:18;;;;;;;56.48;27.82;;;;;;;-2.76;96.17;99357.02;1739829;82;25414;-48
2024/01/19 02:30:46;;;;;;;63.25;27.75;;;;;;;-2.73;96.10;99365.81;1739767;81;28246;-48
2024/01/19 02:33:17;;;;;;;58.90;27.67;;;;;;;-2.72;96.02;99357.62;1739611;81;25667;-48
2024/01/19 02:35:46;;;;;;;57.27;27.70;;;;;;;-2.70;95.96;99352.09;1739823;82;25559;-48
2024/01/19 02:38:12;;;;;;;56.63;25.90;;;;;;;-2.70;95.70;99360.03;1739813;82;26198;-48
2024/01/19 02:40:38;;;;;;;64.25;27.50;;;;;;;-2.72;95.44;99366.10;1739773;82;25485;-48
2024/01/19 02:43:05;;;;;;;60.17;27.48;;;;;;;-2.74;95.27;99367.66;1739808;81;27708;-48
2024/01/19 02:45:31;;;;;;;57.83;26.33;;;;;;;-2.77;95.15;99372.12;1739662;82;25214;-48
2024/01/19 02:47:57;;;;;;;54.33;25.65;;;;;;;-2.79;95.07;99379.50;1739689;82;25553;-48
2024/01/19 02:50:23;;;;;;;53.13;24.85;;;;;;;-2.80;95.08;99377.89;1739705;82;25599;-48
2024/01/19 02:52:49;;;;;;;49.77;24.47;;;;;;;-2.83;94.99;99378.37;1739753;82;25623;-48
2024/01/19 02:55:16;;;;;;;52.95;23.42;;;;;;;-2.86;94.88;99389.44;1739663;82;29623;-50
2024/01/19 02:57:42;;;;;;;52.25;23.10;;;;;;;-2.88;94.89;99395.50;1739617;82;25586;-48
2024/01/19 03:00:15;;;;;;;50.73;24.50;;;;;;;-2.88;94.92;99398.14;1739721;81;25546;-47
2024/01/19 03:02:42;;;;;;;51.58;24.18;;;;;;;-2.89;94.98;99395.23;1739764;82;25648;-48
2024/01/19 03:05:10;;;;;;;52.38;23.60;;;;;;;-2.90;95.02;99401.56;1739783;82;25429;-48
2024/01/19 03:07:36;;;;;;;53.08;24.52;;;;;;;-2.90;95.04;99411.62;1739657;82;27429;-49
2024/01/19 03:10:09;;;;;;;47.38;20.50;;;;;;;-2.90;94.89;99413.47;1739583;82;25461;-48
2024/01/19 03:12:35;;;;;;;50.78;22.20;;;;;;;-2.94;94.63;99415.80;1739673;82;25441;-47
2024/01/19 03:15:01;;;;;;;47.83;21.90;;;;;;;-2.95;94.64;99425.30;1724315;83;25629;-48
2024/01/19 03:17:33;;;;;;;43.52;21.07;;;;;;;-2.96;94.57;99428.98;1724301;83;25440;-51
2024/01/19 03:20:08;;;;;;;50.03;22.77;;;;;;;-2.97;94.62;99433.48;1724339;83;27487;-52
2024/01/19 03:22:40;;;;;;;51.63;24.15;;;;;;;-2.98;94.60;99433.72;1724308;83;25480;-51
2024/01/19 03:25:11;;;;;;;58.63;26.20;;;;;;;-3.04;94.28;99438.92;1724361;83;25563;-52
2024/01/19 03:27:37;;;;;;;52.65;24.43;;;;;;;-3.06;94.42;99448.16;1724375;83;25636;-52
2024/01/19 03:30:10;;;;;;;53.55;24.43;;;;;;;-3.09;94.58;99445.98;1724319;83;25423;-51
2024/01/19 03:32:42;;;;;;;58.95;26.27;;;;;;;-3.10;94.64;99453.13;1724328;83;27348;-48
2024/01/19 03:35:13;;;;;;;58.25;27.13;;;;;;;-3.11;94.71;99452.84;1724180;83;25580;-48
2024/01/19 03:37:43;;;;;;;57.58;25.72;;;;;;;-3.12;94.76;99457.84;1724319;83;25479;-48
2024/01/19 03:40:10;;;;;;;57.27;25.30;;;;;;;-3.15;94.73;99467.59;1724276;83;25626;-49
2024/01/19 03:42:41;;;;;;;58.75;25.37;;;;;;;-3.16;94.78;99473.13;1724315;83;25607;-48
2024/01/19 03:45:12;;;;;;;47.90;23.10;;;;;;;-3.17;94.95;99463.04;1724243;83;27325;-47
2024/01/19 03:47:46;;;;;;;54.30;23.50;;;;;;;-3.18;94.95;99470.72;1724237;83;25683;-48
2024/01/19 03:50:13;;;;;;;50.95;23.67;;;;;;;-3.19;94.92;99469.09;1724360;83;25454;-47
2024/01/19 03:52:40;;;;;;;52.27;23.27;;;;;;;-3.22;94.79;99473.53;1724210;83;26033;-47
2024/01/19 03:55:12;;;;;;;50.48;22.48;;;;;;;-3.22;94.84;99473.53;1724309;83;25481;-47
2024/01/19 03:57:38;;;;;;;46.80;21.35;;;;;;;-3.27;94.68;99482.20;1724257;83;27319;-47
2024/01/19 04:00:11;;;;;;;45.58;20.82;;;;;;;-3.28;94.78;99487.20;1724196;83;25602;-48
2024/01/19 04:02:41;;;;;;;44.98;20.62;;;;;;;-3.29;94.87;99490.87;1724327;83;25607;-46
2024/01/19 04:05:11;;;;;;;49.18;21.50;;;;;;;-3.28;94.88;99504.92;1724341;83;25637;-48
2024/01/19 04:07:37;;;;;;;50.88;20.97;;;;;;;-3.30;94.81;99506.48;1724241;83;25507;-47
2024/01/19 04:10:09;;;;;;;51.23;23.00;;;;;;;-3.32;94.65;99515.67;1724277;83;26663;-46
2024/01/19 04:12:36;;;;;;;49.80;21.42;;;;;;;-3.35;94.67;99520.11;1724163;83;25383;-47
2024/01/19 04:15:08;;;;;;;50.58;22.50;;;;;;;-3.35;94.85;99523.58;1715022;82;25406;-47
2024/01/19 04:17:34;;;;;;;47.27;21.42;;;;;;;-3.34;94.90;99523.05;1713474;83;25732;-47
2024/01/19 04:20:00;;;;;;;52.75;23.05;;;;;;;-3.35;94.89;99527.54;1713467;83;25203;-48
2024/01/19 04:22:30;;;;;;;48.33;21.73;;;;;;;-3.35;94.86;99545.23;1713455;83;27984;-49
2024/01/19 04:24:56;;;;;;;49.50;22.52;;;;;;;-3.36;94.91;99541.00;1713521;83;25562;-48
2024/01/19 04:27:22;;;;;;;54.20;21.95;;;;;;;-3.36;94.87;99545.76;1713471;83;25525;-48
2024/01/19 04:29:49;;;;;;;49.18;21.87;;;;;;;-3.38;94.88;99555.77;1713424;83;26240;-47
2024/01/19 04:32:15;;;;;;;44.35;20.10;;;;;;;-3.40;94.79;99557.86;1713449;83;25606;-48
2024/01/19 04:34:41;;;;;;;43.78;19.87;;;;;;;-3.43;94.63;99571.55;1713460;83;27217;-48
2024/01/19 04:37:07;;;;;;;41.15;18.80;;;;;;;-3.46;94.55;99574.65;1713315;83;25419;-48
2024/01/19 04:39:34;;;;;;;43.70;19.75;;;;;;;-3.48;94.56;99589.95;1713476;83;25562;-48
2024/01/19 04:42:07;;;;;;;42.60;19.07;;;;;;;-3.52;94.42;99602.84;1713475;83;25628;-49
2024/01/19 04:44:34;;;;;;;43.48;18.75;;;;;;;-3.52;94.54;99605.98;1713514;83;25441;-47
2024/01/19 04:47:02;;;;;;;46.63;20.82;;;;;;;-3.53;94.68;99615.76;1713309;83;28070;-48
2024/01/19 04:49:30;;;;;;;47.67;22.13;;;;;;;-3.55;94.66;99617.05;1713303;83;26033;-48
2024/01/19 04:51:56;;;;;;;55.48;23.87;;;;;;;-3.56;94.81;99609.61;1713431;83;25602;-48
2024/01/19 04:54:24;;;;;;;48.05;24.57;;;;;;;-3.55;94.76;99617.05;1713357;83;25621;-48
2024/01/19 04:56:50;;;;;;;52.23;24.23;;;;;;;-3.54;94.99;99610.70;1713474;83;25553;-48
2024/01/19 04:59:16;;;;;;;46.40;21.10;;;;;;;-3.51;95.14;99618.97;1713414;83;27270;-48
2024/01/19 05:01:42;;;;;;;51.00;21.60;;;;;;;-3.51;94.86;99622.14;1713480;83;25414;-47
2024/01/19 05:04:10;;;;;;;51.45;21.80;;;;;;;-3.50;94.81;99626.41;1713507;83;25567;-48
2024/01/19 05:06:37;;;;;;;45.75;21.50;;;;;;;-3.52;94.58;99623.98;1713399;83;25618;-48
2024/01/19 05:09:03;;;;;;;46.30;21.42;;;;;;;-3.52;94.42;99625.31;1713443;83;25509;-48
2024/01/19 05:11:29;;;;;;;42.83;20.52;;;;;;;-3.52;94.33;99624.48;1713341;83;27374;-48
2024/01/19 05:13:55;;;;;;;44.48;18.85;;;;;;;-3.56;93.97;99629.44;1716552;82;25605;-48
2024/01/19 05:16:21;;;;;;;39.33;17.75;;;;;;;-3.59;93.75;99625.43;1726673;83;25610;-48
2024/01/19 05:18:47;;;;;;;38.02;17.90;;;;;;;-3.64;93.52;99638.54;1726537;83;25678;-47
2024/01/19 05:21:15;;;;;;;39.78;17.92;;;;;;;-3.68;93.48;99646.62;1726624;83;25452;-47
2024/01/19 05:23:41;;;;;;;36.77;17.77;;;;;;;-3.70;93.55;99649.23;1726494;83;27367;-47
2024/01/19 05:26:08;;;;;;;41.15;17.40;;;;;;;-3.74;93.65;99648.89;1726453;83;25433;-46
2024/01/19 05:28:37;;;;;;;37.63;17.17;;;;;;;-3.72;93.68;99657.91;1726580;83;25615;-47
2024/01/19 05:31:06;;;;;;;39.90;18.15;;;;;;;-3.73;93.59;99662.90;1726546;83;25705;-47
2024/01/19 05:33:35;;;;;;;32.60;16.80;;;;;;;-3.77;93.50;99662.56;1726701;83;25392;-48
2024/01/19 05:36:07;;;;;;;40.08;16.35;;;;;;;-3.81;93.45;99664.86;1726610;83;27235;-49
2024/01/19 05:38:41;;;;;;;38.15;17.20;;;;;;;-3.82;93.50;99673.02;1726491;83;25993;-50
2024/01/19 05:41:10;;;;;;;38.33;17.77;;;;;;;-3.80;93.74;99674.41;1726564;83;25479;-48
2024/01/19 05:43:42;;;;;;;37.50;16.55;;;;;;;-3.77;93.95;99676.56;1726614;83;25607;-49
2024/01/19 05:46:09;;;;;;;41.20;16.77;;;;;;;-3.75;94.06;99675.02;1726664;83;25469;-50
2024/01/19 05:48:35;;;;;;;33.73;16.42;;;;;;;-3.74;93.82;99682.45;1726660;83;27517;-50
2024/01/19 05:51:01;;;;;;;34.85;15.98;;;;;;;-3.76;93.57;99682.68;1726554;83;25653;-48
2024/01/19 05:53:27;;;;;;;37.10;15.85;;;;;;;-3.79;93.62;99679.96;1726462;83;25422;-50
2024/01/19 05:55:56;;;;;;;37.40;17.20;;;;;;;-3.76;93.61;99684.00;1726540;83;25619;-51
2024/01/19 05:58:23;;;;;;;34.35;15.03;;;;;;;-3.77;93.34;99687.67;1726597;83;25635;-49
2024/01/19 06:00:49;;;;;;;34.18;15.20;;;;;;;-3.81;93.23;99691.28;1726576;83;27324;-51
2024/01/19 06:03:17;;;;;;;29.70;15.00;;;;;;;-3.85;93.15;99690.12;1726463;83;25850;-51
2024/01/19 06:05:43;;;;;;;34.67;15.08;;;;;;;-3.87;93.07;99688.75;1726588;83;25611;-48
2024/01/19 06:08:10;;;;;;;28.45;13.95;;;;;;;-3.87;93.23;99700.64;1726530;83;25843;-48
2024/01/19 06:10:36;;;;;;;37.03;16.10;;;;;;;-3.87;93.19;99696.67;1726685;83;25478;-48
2024/01/19 06:13:04;;;;;;;30.95;14.73;;;;;;;-3.88;93.17;99708.27;1726667;83;28095;-48
2024/01/19 06:15:30;;;;;;;30.95;14.45;;;;;;;-3.90;93.15;99704.53;1736518;82;25638;-50
2024/01/19 06:17:56;;;;;;;32.73;14.38;;;;;;;-3.92;93.04;99705.28;1739022;81;25706;-48
2024/01/19 06:20:23;;;;;;;29.20;13.50;;;;;;;-3.95;92.85;99703.91;1739015;81;27915;-47
2024/01/19 06:22:49;;;;;;;30.52;13.75;;;;;;;-3.97;92.74;99706.48;1739211;81;25711;-47
2024/01/19 06:25:16;;;;;;;30.82;14.03;;;;;;;-3.98;92.72;99714.13;1739190;82;27706;-48
2024/01/19 06:27:44;;;;;;;33.73;14.20;;;;;;;-4.00;92.54;99718.81;1739020;82;25662;-48
2024/01/19 06:30:15;;;;;;;32.60;14.98;;;;;;;-4.03;92.43;99721.41;1739168;81;25781;-48
2024/01/19 06:32:42;;;;;;;35.20;15.48;;;;;;;-4.05;92.39;99721.33;1739813;82;25997;-48
2024/01/19 06:35:10;;;;;;;36.05;16.35;;;;;;;-4.08;92.41;99722.61;1739727;82;25369;-49
2024/01/19 06:37:39;;;;;;;36.23;15.70;;;;;;;-4.12;92.42;99713.50;1739752;81;27677;-48
2024/01/19 06:40:14;;;;;;;33.80;15.48;;;;;;;-4.10;92.40;99729.95;1739692;81;25629;-49
2024/01/19 06:42:46;;;;;;;30.55;14.45;;;;;;;-4.08;92.60;99732.38;1739809;81;25414;-48
2024/01/19 06:45:18;;;;;;;37.05;15.68;;;;;;;-4.08;92.59;99731.05;1739738;81;25700;-49
2024/01/19 06:47:46;;;;;;;35.65;16.07;;;;;;;-4.10;92.37;99731.28;1739881;82;25401;-48
2024/01/19 06:50:12;;;;;;;35.60;15.53;;;;;;;-4.11;92.45;99734.14;1739727;82;27381;-48
2024/01/19 06:52:40;;;;;;;33.63;15.50;;;;;;;-4.10;92.60;99739.20;1739573;82;26111;-49
2024/01/19 06:55:09;;;;;;;32.08;14.80;;;;;;;-4.10;92.24;99741.84;1739748;82;25448;-48
2024/01/19 06:57:36;;;;;;;32.48;14.47;;;;;;;-4.13;92.19;99735.16;1739758;82;25621;-48
2024/01/19 07:00:08;;;;;;;32.05;14.18;;;;;;;-4.15;92.15;99743.03;1739744;82;25552;-48
2024/01/19 07:02:35;;;;;;;32.98;15.48;;;;;;;-4.15;92.17;99749.12;1739765;81;27673;-49
2024/01/19 07:05:01;;;;;;;28.32;14.28;;;;;;;-4.13;92.23;99748.89;1739597;82;25552;-48
2024/01/19 07:07:27;;;;;;;30.68;14.50;;;;;;;-4.13;92.27;99745.73;1739818;81;25556;-48
2024/01/19 07:09:54;;;;;;;30.43;14.85;;;;;;;-4.12;92.27;99755.77;1739806;82;25527;-47
2024/01/19 07:12:20;;;;;;;34.67;16.00;;;;;;;-4.11;92.17;99761.36;1739723;82;25407;-48
2024/01/19 07:14:46;;;;;;;33.35;14.85;;;;;;;-4.11;91.92;99760.56;1735613;82;27472;-48
2024/01/19 07:17:14;;;;;;;29.80;13.68;;;;;;;-4.11;91.79;99767.16;1726481;83;25719;-46
2024/01/19 07:19:40;;;;;;;28.00;14.55;;;;;;;-4.11;91.69;99764.00;1726608;81;25520;-47
2024/01/19 07:22:06;;;;;;;24.50;13.38;;;;;;;-4.10;91.52;99768.76;1726603;83;25650;-47
2024/01/19 07:24:35;;;;;;;32.38;14.20;;;;;;;-4.11;91.18;99772.45;1726700;83;25602;-47
2024/01/19 07:27:04;;;;;;;32.90;13.78;;;;;;;-4.13;91.14;99774.78;1726742;83;27358;-50
2024/01/19 07:29:33;;;;;;;32.05;13.95;;;;;;;-4.11;91.20;99767.95;1726538;83;25580;-49
2024/01/19 07:32:00;;;;;;;29.27;14.55;;;;;;;-4.11;91.14;99764.00;1726685;83;25619;-48
2024/01/19 07:34:27;;;;;;;31.68;14.15;;;;;;;-4.07;91.19;99768.31;1726667;83;25647;-47
2024/01/19 07:36:55;;;;;;;29.87;14.43;;;;;;;-4.04;91.29;99773.95;1726662;83;25467;-46
2024/01/19 07:39:23;;;;;;;32.70;15.43;;;;;;;-4.02;91.17;99781.65;1726671;83;27282;-47
2024/01/19 07:41:54;;;;;;;35.65;16.00;;;;;;;-3.97;91.48;99779.14;1726610;83;25513;-47
2024/01/19 07:44:22;;;;;;;31.12;16.05;;;;;;;-3.94;91.31;99780.81;1726641;83;25382;-48
2024/01/19 07:46:50;;;;;;;34.10;17.05;;;;;;;-3.91;91.18;99777.45;1726552;83;25669;-48
2024/01/19 07:49:21;;;;;;;35.08;17.12;;;;;;;-3.87;91.38;99789.17;1726621;83;25558;-47
2024/01/19 07:51:44;;;;;;;31.57;15.48;;;;;;;-3.87;91.01;99784.68;1724264;83;28349;-49
2024/01/19 07:54:10;;;;;;;32.58;16.20;;;;;;;-3.83;90.97;99784.53;1726469;83;25440;-48
2024/01/19 07:56:36;;;;;;;29.50;15.75;;;;;;;-3.79;91.06;99776.95;1726565;83;25444;-48
2024/01/19 07:59:03;;;;;;;34.85;15.63;;;;;;;-3.74;91.21;99779.72;1726598;83;25651;-48
2024/01/19 08:01:31;;;;;;;25.90;13.68;;;;;;;-3.71;90.81;99770.52;1726577;81;25442;-48
2024/01/19 08:03:57;;;;;;;31.75;16.73;;;;;;;-3.69;90.95;99763.98;1726539;83;29524;-48
2024/01/19 08:06:23;;;;;;;32.58;16.15;;;;;;;-3.63;90.91;99773.63;1726544;83;25567;-48
2024/01/19 08:08:49;;;;;;;27.13;14.63;;;;;;;-3.60;90.51;99770.54;1726615;83;25567;-48
2024/01/19 08:11:16;;;;;;;27.17;14.28;;;;;;;-3.55;90.70;99759.81;1726533;83;25637;-48
2024/01/19 08:13:42;;;;;;;28.65;14.68;;;;;;;-3.50;90.71;99767.86;1726554;83;25614;-48
2024/01/19 08:16:08;;;;;;;29.35;15.18;;;;;;;-3.43;91.09;99769.88;1726611;82;27969;-49
2024/01/19 08:18:34;;;;;;;28.30;14.98;;;;;;;-3.35;90.73;99772.19;1726587;83;25466;-48
2024/01/19 08:21:05;;;;;;;32.00;15.63;;;;;;;-3.28;90.94;99773.39;1726690;83;25386;-49
2024/01/19 08:23:35;;;;;;;31.27;16.00;;;;;;;-3.19;90.79;99766.18;1726595;83;25561;-49
2024/01/19 08:26:08;;;;;;;28.17;14.50;;;;;;;-3.11;90.41;99762.39;1726633;83;25470;-49
2024/01/19 08:28:34;;;;;;;32.50;15.35;;;;;;;-3.07;90.50;99764.85;1726575;83;29504;-48
2024/01/19 08:31:01;;;;;;;34.75;17.12;;;;;;;-2.95;90.01;99770.66;1726498;83;25577;-48
2024/01/19 08:33:27;;;;;;;33.53;15.65;;;;;;;-2.89;89.91;99775.03;1726557;83;25602;-48
2024/01/19 08:35:53;;;;;;;28.05;14.65;;;;;;;-2.84;89.88;99770.64;1726655;83;25723;-47
2024/01/19 08:38:19;;;;;;;28.70;14.87;;;;;;;-2.76;89.36;99773.96;1726679;83;25440;-47
2024/01/19 08:40:48;;;;;;;27.60;15.30;;;;;;;-2.73;89.04;99778.27;1726590;83;27267;-50
2024/01/19 08:43:16;;;;;;;31.87;15.08;;;;;;;-2.57;89.89;99782.05;1726510;83;25393;-50
2024/01/19 08:45:42;;;;;;;29.55;16.57;;;;;;;-2.49;89.26;99787.48;1726602;83;25441;-48
2024/01/19 08:48:08;;;;;;;31.52;15.13;;;;;;;-2.33;90.01;99786.75;1726478;83;25683;-48
2024/01/19 08:50:35;;;;;;;29.98;15.83;;;;;;;-2.28;88.67;99789.49;1726550;82;25416;-48
2024/01/19 08:53:05;;;;;;;32.10;15.40;;;;;;;-2.11;89.14;99795.34;1726512;83;28002;-47
2024/01/19 08:55:32;;;;;;;35.70;15.35;;;;;;;-2.07;88.14;99799.94;1726552;83;25625;-47
2024/01/19 08:58:01;;;;;;;30.97;14.87;;;;;;;-2.01;87.99;99804.83;1726715;83;25601;-48
2024/01/19 09:00:32;;;;;;;30.70;15.80;;;;;;;-2.03;87.18;99798.94;1726479;83;27076;-48
2024/01/19 09:02:58;;;;;;;29.80;17.30;;;;;;;-2.01;87.37;99801.36;1726659;83;25567;-49
2024/01/19 09:05:26;;;;;;;31.20;17.87;;;;;;;-2.07;86.40;99802.59;1726584;83;27607;-48
2024/01/19 09:07:52;;;;;;;34.40;16.93;;;;;;;-2.13;86.55;99806.70;1726491;83;25555;-49
2024/01/19 09:10:18;;;;;;;30.77;15.70;;;;;;;-2.12;86.97;99812.30;1726564;83;25429;-48
2024/01/19 09:12:45;;;;;;;32.23;16.80;;;;;;;-2.11;86.72;99812.56;1726532;83;25623;-48
2024/01/19 09:15:11;;;;;;;36.00;18.30;;;;;;;-2.13;86.30;99812.00;1723963;82;25550;-48
2024/01/19 09:17:37;;;;;;;39.38;17.42;;;;;;;-2.10;86.99;99808.89;1713444;83;27925;-52
2024/01/19 09:20:11;;;;;;;39.00;18.23;;;;;;;-1.92;87.83;99806.05;1713462;83;25600;-51
2024/01/19 09:22:37;;;;;;;34.00;17.82;;;;;;;-1.69;87.71;99816.23;1713486;83;25403;-51
2024/01/19 09:25:12;;;;;;;33.02;16.37;;;;;;;-1.59;87.87;99815.08;1713366;83;26436;-51
2024/01/19 09:27:38;;;;;;;30.57;16.02;;;;;;;-1.52;86.54;99810.95;1713556;83;25450;-49
2024/01/19 09:30:13;;;;;;;34.80;16.90;;;;;;;-1.37;86.90;99818.35;1713467;83;27282;-48
2024/01/19 09:32:41;;;;;;;37.58;18.00;;;;;;;-1.12;86.36;99827.23;1713393;83;25433;-50
2024/01/19 09:35:10;;;;;;;35.75;17.07;;;;;;;-0.91;86.66;99825.67;1713505;83;25392;-52
2024/01/19 09:37:36;;;;;;;36.93;17.98;;;;;;;-0.54;87.88;99829.09;1713596;83;25400;-52
2024/01/19 09:40:11;;;;;;;29.10;16.87;;;;;;;-0.24;86.00;99823.34;1713589;83;25657;-49
2024/01/19 09:42:46;;;;;;;31.02;16.57;;;;;;;-0.03;84.39;99825.69;1713618;83;28032;-49
2024/01/19 09:45:21;;;;;;;33.08;16.07;;;;;;;0.13;82.59;99829.30;1713646;83;25626;-49
2024/01/19 09:48:19;;;;;;;30.45;15.80;;;;;;;0.46;84.09;99838.64;1713678;83;25632;-49
2024/01/19 09:50:51;;;;;;;33.33;17.12;;;;;;;0.81;83.56;99829.36;1713657;83;26231;-49
2024/01/19 09:53:34;;;;;;;32.03;16.32;;;;;;;1.09;81.48;99836.19;1713732;83;25370;-48
2024/01/19 09:56:01;;;;;;;46.42;26.02;;;;;;;1.39;82.81;99843.56;1713716;83;27401;-51
2024/01/19 09:58:27;;;;;;;31.30;16.70;;;;;;;1.64;81.34;99845.55;1713535;83;25614;-47
2024/01/19 10:00:54;;;;;;;31.60;16.20;;;;;;;1.70;80.46;99838.36;1713597;83;25575;-48
2024/01/19 10:03:22;;;;;;;28.67;15.88;;;;;;;1.85;78.79;99834.41;1713581;83;25636;-48
2024/01/19 10:05:51;;;;;;;30.62;16.87;;;;;;;1.93;78.39;99830.45;1713734;83;25422;-48
2024/01/19 10:08:19;;;;;;;28.60;16.00;;;;;;;2.05;77.48;99836.34;1713857;83;27449;-49
2024/01/19 10:10:50;;;;;;;30.83;16.70;;;;;;;2.27;77.81;99839.88;1713950;83;25453;-49
2024/01/19 10:13:19;;;;;;;28.25;15.80;;;;;;;2.63;77.51;99843.91;1713792;83;25336;-49
2024/01/19 10:15:46;;;;;;;29.87;16.65;;;;;;;2.73;73.22;99850.05;1717454;82;25563;-51
2024/01/19 10:18:15;;;;;;;29.57;16.25;;;;;;;2.73;72.91;99846.58;1726823;83;25587;-48
2024/01/19 10:20:47;;;;;;;32.03;16.17;;;;;;;2.93;72.94;99857.25;1726938;83;27354;-49
2024/01/19 10:23:23;;;;;;;36.08;16.50;;;;;;;3.12;74.05;99848.69;1726709;83;25433;-51
2024/01/19 10:25:51;;;;;;;33.05;17.17;;;;;;;3.43;72.51;99845.39;1726836;83;25591;-48
2024/01/19 10:28:35;;;;;;;31.37;18.12;;;;;;;3.71;70.86;99852.00;1726808;82;25632;-49
2024/01/19 10:31:18;;;;;;;40.15;21.45;;;;;;;3.86;71.89;99850.31;1726790;81;25217;-50
2024/01/19 10:33:57;;;;;;;47.10;29.40;;;;;;;3.98;73.78;99844.09;1726857;83;27328;-49
2024/01/19 10:36:26;;;;;;;32.17;16.73;;;;;;;4.19;70.54;99851.48;1726687;80;25560;-47
2024/01/19 10:38:52;;;;;;;;;;;;;;;4.25;71.13;99837.52;1729366;83;25624;-47
2024/01/19 10:41:27;;;;;;;28.92;16.02;;;;;;;4.27;71.19;99848.75;1726684;81;26408;-47
2024/01/19 10:43:53;;;;;;;31.42;16.40;;;;;;;4.14;68.72;99838.66;1726791;83;25457;-48
2024/01/19 10:46:26;;;;;;;29.77;16.10;;;;;;;4.17;70.08;99837.59;1726755;83;27748;-49
2024/01/19 10:48:58;;;;;;;30.43;16.50;;;;;;;4.45;71.72;99833.91;1726717;83;25540;-47
2024/01/19 10:51:28;;;;;;;29.70;15.83;;;;;;;4.73;69.17;99832.34;1726012;83;25602;-50
2024/01/19 10:53:58;;;;;;;28.62;16.37;;;;;;;4.67;68.01;99831.59;1725869;83;26848;-49
2024/01/19 10:56:28;;;;;;;30.43;17.42;;;;;;;4.91;66.49;99828.73;1726171;83;25405;-50
2024/01/19 10:59:12;;;;;;;31.17;16.45;;;;;;;4.92;66.98;99829.78;1726935;83;27385;-52
2024/01/19 11:01:42;;;;;;;31.75;16.32;;;;;;;5.36;68.19;99833.35;1726781;83;25637;-54
2024/01/19 11:04:13;;;;;;;31.52;16.95;;;;;;;5.69;64.21;99832.19;1726914;83;25476;-52
2024/01/19 11:06:42;;;;;;;27.10;16.07;;;;;;;5.67;63.63;99833.00;1726884;83;26286;-49
2024/01/19 11:09:13;;;;;;;29.95;16.40;;;;;;;5.59;64.07;99833.10;1726910;83;25413;-51
2024/01/19 11:12:02;;;;;;;31.55;16.57;;;;;;;5.51;63.16;99827.02;1726817;83;27993;-53
2024/01/19 11:14:35;;;;;;;33.08;18.37;;;;;;;5.21;62.91;99815.53;1726880;83;25540;-52
2024/01/19 11:17:04;;;;;;;35.28;17.30;;;;;;;5.11;63.23;99821.83;1727067;82;25483;-51
2024/01/19 11:19:32;;;;;;;35.20;18.70;;;;;;;5.14;64.38;99831.98;1726646;83;25945;-51
2024/01/19 11:22:02;;;;;;;29.30;17.35;;;;;;;5.35;64.10;99827.75;1726691;83;25594;-49
2024/01/19 11:24:34;;;;;;;29.20;17.17;;;;;;;5.62;65.03;99829.85;1726695;83;28239;-49